createdAt,value
2018-12-25T00:00:16.914Z,0.69
2018-12-25T00:05:21.163Z,0.72
2018-12-25T00:10:25.502Z,0.75
2018-12-25T00:15:29.838Z,0.73
2018-12-25T00:20:34.208Z,0.73
2018-12-25T00:25:38.507Z,0.70
2018-12-25T00:30:42.933Z,0.66
2018-12-25T00:35:47.265Z,0.74
2018-12-25T00:40:51.620Z,0.81
2018-12-25T00:45:55.936Z,0.66
2018-12-25T00:51:00.172Z,0.62
2018-12-25T00:56:04.507Z,0.66
2018-12-25T01:01:09.194Z,0.66
2018-12-25T01:06:13.429Z,0.74
2018-12-25T01:11:17.919Z,0.77
2018-12-25T01:16:22.246Z,0.74
2018-12-25T01:21:26.774Z,0.66
2018-12-25T01:26:31.118Z,0.69
2018-12-25T01:31:35.450Z,0.68
2018-12-25T01:36:39.801Z,0.78
2018-12-25T01:41:44.036Z,0.79
2018-12-25T01:46:48.351Z,0.76
2018-12-25T01:51:52.900Z,0.75
2018-12-25T01:56:57.216Z,0.81
2018-12-25T02:02:02.164Z,0.85
2018-12-25T02:07:06.706Z,0.88
2018-12-25T02:12:11.040Z,0.86
2018-12-25T02:17:15.916Z,0.85
2018-12-25T02:22:20.529Z,0.87
2018-12-25T02:27:24.873Z,0.85
2018-12-25T02:32:29.093Z,0.90
2018-12-25T02:37:33.422Z,0.92
2018-12-25T02:42:37.997Z,0.98
2018-12-25T02:47:42.352Z,0.96
2018-12-25T02:52:46.617Z,0.98
2018-12-25T02:57:51.026Z,0.99
2018-12-25T03:02:55.380Z,1.03
2018-12-25T03:07:59.610Z,1.09
2018-12-25T03:13:03.922Z,1.06
2018-12-25T03:18:08.449Z,1.03
2018-12-25T03:23:12.970Z,1.01
2018-12-25T03:28:17.193Z,1.10
2018-12-25T03:33:21.863Z,1.07
2018-12-25T03:38:26.253Z,1.09
2018-12-25T03:43:30.598Z,1.04
2018-12-25T03:48:34.812Z,1.07
2018-12-25T03:53:39.331Z,1.14
2018-12-25T03:58:43.850Z,1.18
2018-12-25T04:03:48.123Z,1.15
2018-12-25T04:08:52.353Z,1.16
2018-12-25T04:13:56.682Z,1.14
2018-12-25T04:19:01.273Z,1.17
2018-12-25T04:24:05.699Z,1.18
2018-12-25T04:29:10.172Z,1.27
2018-12-25T04:34:14.403Z,1.27
2018-12-25T04:39:18.869Z,1.22
2018-12-25T04:44:23.093Z,1.25
2018-12-25T04:49:27.532Z,1.35
2018-12-25T04:54:31.777Z,1.31
2018-12-25T04:59:36.312Z,1.32
2018-12-25T05:04:40.609Z,1.29
2018-12-25T05:09:44.837Z,1.34
2018-12-25T05:14:49.613Z,1.32
2018-12-25T05:19:54.048Z,1.34
2018-12-25T05:24:58.618Z,1.30
2018-12-25T05:30:03.129Z,1.36
2018-12-25T05:35:07.813Z,1.33
2018-12-25T05:40:12.051Z,1.36
2018-12-25T05:45:16.329Z,1.33
2018-12-25T05:50:20.561Z,1.39
2018-12-25T05:55:24.866Z,1.28
2018-12-25T06:00:29.228Z,1.26
2018-12-25T06:05:33.690Z,1.28
2018-12-25T06:10:37.923Z,1.31
2018-12-25T06:15:42.145Z,1.32
2018-12-25T06:20:54.955Z,1.38
2018-12-25T06:25:52.464Z,1.40
2018-12-25T06:30:57.123Z,1.48
2018-12-25T06:36:01.354Z,1.45
2018-12-25T06:41:05.581Z,1.48
2018-12-25T06:46:09.894Z,1.52
2018-12-25T06:51:14.222Z,1.49
2018-12-25T06:56:18.454Z,1.45
2018-12-25T07:01:22.682Z,1.46
2018-12-25T07:06:27.308Z,1.52
2018-12-25T07:11:31.520Z,1.49
2018-12-25T07:16:35.749Z,1.55
2018-12-25T07:21:40.012Z,1.49
2018-12-25T07:26:44.283Z,1.58
2018-12-25T07:31:48.581Z,1.61
2018-12-25T07:36:52.885Z,1.54
2018-12-25T07:41:57.237Z,1.59
2018-12-25T07:47:01.582Z,1.67
2018-12-25T07:52:06.152Z,1.74
2018-12-25T07:57:10.372Z,1.76
2018-12-25T08:02:14.941Z,1.76
2018-12-25T08:07:19.422Z,1.79
2018-12-25T08:12:24.326Z,1.74
2018-12-25T08:17:28.679Z,1.86
2018-12-25T08:22:32.925Z,1.92
2018-12-25T08:27:37.303Z,1.91
2018-12-25T08:32:41.611Z,1.96
2018-12-25T08:37:46.207Z,2.04
2018-12-25T08:42:50.463Z,2.10
2018-12-25T08:47:54.817Z,2.07
2018-12-25T08:52:59.153Z,2.14
2018-12-25T08:58:04.357Z,2.14
2018-12-25T09:03:08.979Z,2.22
2018-12-25T09:08:13.291Z,2.25
2018-12-25T09:13:17.664Z,2.33
2018-12-25T09:18:22.361Z,2.32
2018-12-25T09:23:26.718Z,2.47
2018-12-25T09:28:31.123Z,2.55
2018-12-25T09:33:36.176Z,2.64
2018-12-25T09:38:40.515Z,2.67
2018-12-25T09:43:44.866Z,2.80
2018-12-25T09:48:49.291Z,2.72
2018-12-25T09:53:53.933Z,2.80
2018-12-25T09:58:58.261Z,2.88
2018-12-25T10:04:02.572Z,2.98
2018-12-25T10:09:08.858Z,3.11
2018-12-25T10:14:13.591Z,3.27
2018-12-25T10:19:17.926Z,3.41
2018-12-25T10:24:22.400Z,3.40
2018-12-25T10:29:26.864Z,3.56
2018-12-25T10:34:32.758Z,3.67
2018-12-25T10:39:37.827Z,3.78
2018-12-25T10:44:42.619Z,3.99
2018-12-25T10:49:47.197Z,4.15
2018-12-25T10:54:51.557Z,4.86
2018-12-25T10:59:55.936Z,5.12
2018-12-25T11:05:01.779Z,5.70
2018-12-25T11:10:07.418Z,6.06
2018-12-25T11:15:11.759Z,6.37
2018-12-25T11:20:16.387Z,6.57
2018-12-25T11:25:20.877Z,6.84
2018-12-25T11:30:25.386Z,7.33
2018-12-25T11:35:29.702Z,7.29
2018-12-25T11:40:34.134Z,7.55
2018-12-25T11:45:38.487Z,7.52
2018-12-25T11:50:42.826Z,7.49
2018-12-25T11:55:47.159Z,7.63
2018-12-25T12:00:51.501Z,8.17
2018-12-25T12:05:55.904Z,8.49
2018-12-25T12:11:00.161Z,8.99
2018-12-25T12:16:04.799Z,8.14
2018-12-25T12:21:09.126Z,8.10
2018-12-25T12:26:13.503Z,7.87
2018-12-25T12:31:17.806Z,7.57
2018-12-25T12:36:22.314Z,7.53
2018-12-25T12:41:27.537Z,7.56
2018-12-25T12:46:31.822Z,7.06
2018-12-25T12:57:07.142Z,6.60
2018-12-25T13:02:30.593Z,6.42
2018-12-25T13:07:53.920Z,6.33
2018-12-25T13:13:17.347Z,6.19
2018-12-25T13:18:22.046Z,6.13
2018-12-25T13:23:26.863Z,5.82
2018-12-25T13:28:31.249Z,5.77
2018-12-25T13:33:35.735Z,5.77
2018-12-25T13:38:39.975Z,5.74
2018-12-25T13:43:44.501Z,5.57
2018-12-25T13:49:07.849Z,5.57
2018-12-25T13:54:12.205Z,5.54
2018-12-25T13:59:16.582Z,5.48
2018-12-25T14:04:21.952Z,5.33
2018-12-25T14:09:26.898Z,5.23
2018-12-25T14:14:31.158Z,5.23
2018-12-25T14:19:35.991Z,5.19
2018-12-25T14:24:40.299Z,5.15
2018-12-25T14:29:44.817Z,5.00
2018-12-25T14:34:49.200Z,4.97
2018-12-25T14:39:53.611Z,4.88
2018-12-25T14:44:58.365Z,4.88
2018-12-25T14:50:02.657Z,4.71
2018-12-25T14:55:26.055Z,4.67
2018-12-25T15:00:30.391Z,4.62
2018-12-25T15:05:35.474Z,4.56
2018-12-25T15:10:39.736Z,4.48
2018-12-25T15:15:44.356Z,4.42
2018-12-25T15:21:08.586Z,4.43
2018-12-25T15:26:32.021Z,4.35
2018-12-25T15:31:36.614Z,4.28
2018-12-25T15:36:41.178Z,4.25
2018-12-25T15:41:45.565Z,4.22
2018-12-25T15:46:50.591Z,4.20
2018-12-25T15:51:54.990Z,4.17
2018-12-25T15:57:01.095Z,4.13
2018-12-25T16:02:27.120Z,4.09
2018-12-25T16:07:50.468Z,4.11
2018-12-25T16:13:13.807Z,4.03
2018-12-25T16:18:18.056Z,4.09
2018-12-25T16:23:22.390Z,4.02
2018-12-25T16:28:26.895Z,4.02
2018-12-25T16:33:31.661Z,4.01
2018-12-25T16:38:36.037Z,4.02
2018-12-25T16:43:40.703Z,4.03
2018-12-25T16:49:04.745Z,3.99
2018-12-25T16:54:09.413Z,4.01
2018-12-25T16:59:32.731Z,3.94
2018-12-25T17:04:37.462Z,3.98
2018-12-25T17:09:42.091Z,3.96
2018-12-25T17:14:46.682Z,3.92
2018-12-25T17:19:51.645Z,3.94
2018-12-25T17:24:56.153Z,3.88
2018-12-25T17:30:19.777Z,3.91
2018-12-25T17:35:43.094Z,3.88
2018-12-25T17:40:47.680Z,3.86
2018-12-25T17:45:51.938Z,3.79
2018-12-25T17:50:56.355Z,3.77
2018-12-25T17:56:02.893Z,3.81
2018-12-25T18:01:07.226Z,3.74
2018-12-25T18:06:11.955Z,3.74
2018-12-25T18:11:16.237Z,3.74
2018-12-25T18:16:20.740Z,3.72
2018-12-25T18:21:25.120Z,3.74
2018-12-25T18:26:29.701Z,3.72
2018-12-25T18:31:33.969Z,3.70
2018-12-25T18:36:38.392Z,3.66
2018-12-25T18:41:42.910Z,3.69
2018-12-25T18:46:47.337Z,3.69
2018-12-25T18:52:10.681Z,3.68
2018-12-25T18:57:14.945Z,3.71
2018-12-25T19:02:19.374Z,3.68
2018-12-25T19:07:23.632Z,3.63
2018-12-25T19:12:29.225Z,3.60
2018-12-25T19:17:33.491Z,3.57
2018-12-25T19:22:37.951Z,3.60
2018-12-25T19:27:42.261Z,3.55
2018-12-25T19:32:46.535Z,3.52
2018-12-25T19:37:51.948Z,3.56
2018-12-25T19:42:56.336Z,3.49
2018-12-25T19:48:00.600Z,3.27
2018-12-25T19:53:04.850Z,3.22
2018-12-25T19:58:10.223Z,2.90
2018-12-25T20:03:18.937Z,2.82
2018-12-25T20:09:01.641Z,2.59
2018-12-25T20:14:47.499Z,2.47
2018-12-25T20:20:29.993Z,2.25
2018-12-25T20:26:06.917Z,2.13
2018-12-25T20:31:49.595Z,2.05
2018-12-25T20:37:49.539Z,1.96
2018-12-25T20:43:34.853Z,1.84
2018-12-25T20:49:20.353Z,1.65
2018-12-25T20:55:03.171Z,1.55
2018-12-25T21:00:33.979Z,1.42
2018-12-25T21:06:16.410Z,1.17
2018-12-25T21:11:58.851Z,0.97
2018-12-25T21:17:41.172Z,1.06
2018-12-25T21:23:23.468Z,1.04
2018-12-25T21:28:47.062Z,0.83
2018-12-25T21:33:51.485Z,0.75
2018-12-25T21:38:56.437Z,0.72
2018-12-25T21:44:21.760Z,0.71
2018-12-25T21:55:00.157Z,0.27
2018-12-25T22:05:16.956Z,0.17
2018-12-25T22:10:40.367Z,0.19
2018-12-25T22:16:03.727Z,0.10
2018-12-25T22:21:08.187Z,0.05
2018-12-25T22:26:12.864Z,0.06
2018-12-25T22:31:17.414Z,0.03
2018-12-25T22:36:22.346Z,-0.13
2018-12-25T22:41:27.002Z,-0.34
2018-12-25T22:46:50.806Z,-0.47
2018-12-25T22:52:09.830Z,-0.31
2018-12-25T22:57:27.309Z,-0.24
2018-12-25T23:02:45.987Z,-0.61
2018-12-25T23:07:50.462Z,-0.49
2018-12-25T23:12:55.237Z,-0.45
2018-12-25T23:17:59.628Z,-0.67
2018-12-25T23:23:23.846Z,-0.70
2018-12-25T23:28:47.709Z,-0.94
2018-12-25T23:33:52.231Z,-0.90
2018-12-25T23:38:56.955Z,-0.89
2018-12-25T23:44:01.401Z,-0.90
2018-12-25T23:49:25.988Z,-0.96
2018-12-25T23:54:43.027Z,-0.96
2018-12-25T23:59:49.560Z,-1.01
